Vining, IA (52348)

7:45 PM CDT on March 27, 2015 (GMT -0500)
South West Btown | | Change Station
CLOSE
Current Station
Personal Weather Station
Location: Blairstown, IA
Elevation: 866 ft
Nearby Weather Stations

Elev 866 ft 41.91 °N, 92.09 °W | Updated 25 seconds ago

Partly Cloudy
Partly Cloudy
32.7 °F
Feels Like 33 °F
N
0.0
Wind Variable Wind from NE
Gusts 1.0 mph

Today
High -- | Low -- °F
--% Chance of Precip.
Yesterday
High -- | Low -- °F
Precip. -- in
7:01 AM 7:29 PM
First Quarter, 57% visible
Pressure 30.17 in
Visibility 10.0 miles
Clouds Clear
Windchill 33 °F
Dew Point 12 °F
Humidity 42%
Rainfall 0.00 in
Snow Depth Not available.
UV 0 out of 12
Pollen 3.20 out of 12
Air Quality Not available.
Flu Activity Not available.
METAR KVTI 280035Z AUTO 04005KT 10SM CLR 00/M11 A3017 RMK AO2 T00021112

More Conditions Fewer Conditions

Pressure 30.17 in
Visibility 10.0 miles
Clouds Clear
Windchill 33 °F
Dew Point 12 °F
Humidity 42%
Rainfall 0.00 in
Snow Depth Not available.
UV 0 out of 12
Pollen 3.20 out of 12
Air Quality Not available.
Flu Activity Not available.
METAR KVTI 280035Z AUTO 04005KT 10SM CLR 00/M11 A3017 RMK AO2 T00021112

More Conditions Fewer Conditions

10-Day Weather Forecast

Almanac

Astronomy

Mar. 27, 2015 Rise Set
Actual Time
Civil Twilight
Nautical Twilight
Astronomical Twilight
Moon
Length of Visible Light
Length of Day
Tomorrow will be .
, % of the Moon is Illuminated

Today's Extremes

State Highs State Lows

Community

WunderPhotos

Upload Photos

1,808,894 photos uploaded!

WunderBlogs® & News

Nearby

Air Quality

  Air Quality AQ Index Pollutant
Not available.

Snow Depth

Station Depth Elevation

Earthquake Activity

City Distance Mag. Time & Date
Minimum magnitude displayed is 2.5.

Coastal Water Temperatures

Place Temperature

Stations

Nearby Weather Stations

Station Location Temp. Windchill Dew Point Humidity Wind Precip. Elev Updated Type